Time;durP1;ratioP1;P1;durP2;ratioP2;P2;SDS_P1;SDS_P2;PMS_P1;PMS_P2;Temp;Humidity;BMP_temperature;BMP_pressure;BME280_temperature;BME280_humidity;BME280_pressure;Samples;Min_cycle;Max_cycle;Signal;HPM_P1;HPM_P2
2021/01/19 00:00:19;;;;;;;5.53;2.83;;;;;;;-2.25;84.79;100630.97;5021614;28;20199;-71
2021/01/19 00:02:46;;;;;;;5.77;3.17;;;;;;;-2.12;85.17;100650.06;5017221;28;20750;-71
2021/01/19 00:05:13;;;;;;;11.93;3.10;;;;;;;-1.92;85.66;100664.56;5024398;28;20673;-71
2021/01/19 00:07:41;;;;;;;4.07;2.67;;;;;;;-1.88;85.25;100658.34;5025555;28;20223;-71
2021/01/19 00:10:10;;;;;;;4.63;2.37;;;;;;;-1.83;85.50;100653.03;5022523;28;20564;-72
2021/01/19 00:12:37;;;;;;;6.20;2.77;;;;;;;-1.74;85.86;100665.16;5024919;28;20298;-71
2021/01/19 00:15:06;;;;;;;5.10;3.13;;;;;;;-1.97;85.78;100605.06;5015673;28;20220;-72
2021/01/19 00:17:34;;;;;;;6.50;3.27;;;;;;;-1.57;86.32;100653.38;5023743;28;20517;-72
2021/01/19 00:20:01;;;;;;;4.13;2.20;;;;;;;-1.74;85.28;100621.28;5024854;28;20223;-72
2021/01/19 00:22:29;;;;;;;7.53;2.50;;;;;;;-1.63;84.66;100650.88;5025050;28;20508;-71
2021/01/19 00:24:57;;;;;;;5.60;2.33;;;;;;;-1.81;83.71;100651.25;5024832;28;20234;-71
2021/01/19 00:27:25;;;;;;;5.77;3.27;;;;;;;-1.81;84.34;100648.59;5025328;28;20605;-72
2021/01/19 00:29:52;;;;;;;5.70;2.57;;;;;;;-1.76;84.48;100646.75;5026578;28;20256;-71
2021/01/19 00:32:19;;;;;;;5.60;2.80;;;;;;;-1.71;84.76;100639.63;5026896;28;20203;-71
2021/01/19 00:34:46;;;;;;;6.20;2.67;;;;;;;-1.70;84.88;100632.59;5027814;28;20250;-71
2021/01/19 00:37:13;;;;;;;10.43;2.73;;;;;;;-1.70;84.49;100636.09;5026585;28;20505;-72
2021/01/19 00:39:40;;;;;;;6.30;2.83;;;;;;;-1.67;84.72;100633.41;5028365;28;20213;-72
2021/01/19 00:42:07;;;;;;;4.93;2.67;;;;;;;-1.62;84.95;100642.06;5028159;28;20692;-72
2021/01/19 00:44:35;;;;;;;8.10;2.73;;;;;;;-1.60;85.08;100631.50;5024434;28;20210;-71
2021/01/19 00:47:04;;;;;;;7.10;2.70;;;;;;;-1.57;85.07;100629.69;5025801;28;20226;-71
2021/01/19 00:49:31;;;;;;;3.57;2.40;;;;;;;-1.59;85.12;100628.84;5026360;28;20210;-72
2021/01/19 00:51:58;;;;;;;3.00;2.23;;;;;;;-1.59;84.97;100628.84;5027963;28;20209;-71
2021/01/19 00:54:25;;;;;;;7.27;3.67;;;;;;;-1.50;85.11;100621.69;5026607;28;20280;-72
2021/01/19 00:56:52;;;;;;;4.53;2.33;;;;;;;-1.43;85.36;100624.16;5026719;28;20230;-72
2021/01/19 00:59:21;;;;;;;3.67;2.03;;;;;;;-1.38;85.41;100624.91;5024444;28;20216;-71
2021/01/19 01:01:49;;;;;;;6.03;2.63;;;;;;;-1.35;85.19;100621.34;5026357;28;20191;-71
2021/01/19 01:04:17;;;;;;;5.03;3.03;;;;;;;-1.35;84.99;100618.72;5027756;28;20646;-72
2021/01/19 01:06:44;;;;;;;4.87;1.70;;;;;;;-1.30;85.08;100619.47;5027712;28;20207;-72
2021/01/19 01:09:11;;;;;;;4.73;1.97;;;;;;;-1.37;84.76;100624.03;5027720;28;20198;-71
2021/01/19 01:11:40;;;;;;;3.07;1.73;;;;;;;-1.42;84.14;100620.63;5017199;28;20210;-72
2021/01/19 01:14:08;;;;;;;3.27;2.23;;;;;;;-1.39;84.76;100619.69;5025516;28;20210;-72
2021/01/19 01:16:36;;;;;;;4.37;1.90;;;;;;;-1.54;83.70;100614.72;5026192;28;20206;-72
2021/01/19 01:19:04;;;;;;;7.57;2.03;;;;;;;-1.50;84.38;100619.06;5027494;28;20199;-71
2021/01/19 01:21:35;;;;;;;5.20;2.57;;;;;;;-1.49;83.79;100619.03;5024409;28;20694;-71
2021/01/19 01:24:03;;;;;;;2.13;1.60;;;;;;;-1.46;84.05;100618.94;5027766;28;20199;-72
2021/01/19 01:26:30;;;;;;;3.27;1.70;;;;;;;-1.39;84.60;100615.28;5027128;28;20214;-72
2021/01/19 01:28:57;;;;;;;5.50;1.97;;;;;;;-1.34;84.58;100623.94;5027042;28;20209;-72
2021/01/19 01:31:24;;;;;;;2.90;1.90;;;;;;;-1.35;84.64;100601.16;5026555;28;20207;-72
2021/01/19 01:33:51;;;;;;;5.77;2.17;;;;;;;-1.48;83.92;100599.69;5027310;28;20203;-72
2021/01/19 01:36:19;;;;;;;4.00;1.90;;;;;;;-1.32;84.30;100613.38;5026587;28;20780;-72
2021/01/19 01:38:46;;;;;;;4.53;2.37;;;;;;;-1.34;83.89;100607.28;5025913;28;20446;-72
2021/01/19 01:41:18;;;;;;;5.87;2.30;;;;;;;-1.30;83.87;100608.94;5024714;28;20582;-72
2021/01/19 01:43:46;;;;;;;4.30;2.17;;;;;;;-1.26;84.52;100603.56;5023493;28;20560;-72
2021/01/19 01:46:15;;;;;;;2.30;1.77;;;;;;;-1.29;84.59;100585.22;5025145;28;20203;-72
2021/01/19 01:48:44;;;;;;;5.10;1.97;;;;;;;-1.15;84.49;100598.09;5023247;28;20219;-72
2021/01/19 01:51:12;;;;;;;3.33;2.27;;;;;;;-1.11;84.63;100597.13;5025051;28;20202;-72
2021/01/19 01:53:41;;;;;;;4.23;2.70;;;;;;;-1.31;84.51;100554.53;5026607;28;20285;-71
2021/01/19 01:56:10;;;;;;;4.00;1.97;;;;;;;-1.13;83.93;100585.75;5025788;28;20232;-73
2021/01/19 01:58:38;;;;;;;4.77;2.43;;;;;;;-1.08;84.80;100581.22;5022832;28;20275;-72
2021/01/19 02:01:06;;;;;;;4.50;2.20;;;;;;;-1.07;84.43;100585.59;5022715;28;20208;-71
2021/01/19 02:03:34;;;;;;;6.23;2.70;;;;;;;-1.12;84.19;100576.94;5021563;28;20204;-72
2021/01/19 02:06:01;;;;;;;3.20;2.00;;;;;;;-1.11;84.05;100576.03;5024788;28;20206;-72
2021/01/19 02:08:42;;;;;;;23.40;14.33;;;;;;;-1.10;84.29;100579.53;5023692;28;20218;-72
2021/01/19 02:11:22;;;;;;;3.43;2.50;;;;;;;-1.06;84.38;100579.44;5020718;28;20224;-72
2021/01/19 02:14:00;;;;;;;7.83;3.00;;;;;;;-1.00;84.56;100575.78;5017957;28;20711;-72
2021/01/19 02:16:40;;;;;;;3.93;2.43;;;;;;;-0.94;84.79;100576.50;5023670;28;20692;-72
2021/01/19 02:19:31;;;;;;;7.77;5.00;;;;;;;-0.90;84.75;100571.19;5026155;28;20211;-72
2021/01/19 02:22:46;;;;;;;2.03;1.57;;;;;;;-0.82;84.67;100563.94;5004110;28;20218;-72
2021/01/19 02:25:28;;;;;;;5.97;2.67;;;;;;;-0.83;84.25;100567.50;5003252;28;20212;-71
2021/01/19 02:28:10;;;;;;;2.10;1.87;;;;;;;-0.89;84.02;100554.47;5026351;28;20716;-72
2021/01/19 02:30:44;;;;;;;5.50;2.20;;;;;;;-0.93;83.61;100559.78;5025682;28;20682;-72
2021/01/19 02:33:22;;;;;;;3.60;1.90;;;;;;;-1.08;83.52;100519.78;5024975;28;20205;-72
2021/01/19 02:35:56;;;;;;;5.17;2.27;;;;;;;-0.85;83.73;100551.72;5025868;28;20231;-72
2021/01/19 02:38:33;;;;;;;3.93;1.83;;;;;;;-0.81;83.77;100550.75;5030122;28;20305;-72
2021/01/19 02:41:02;;;;;;;3.53;1.90;;;;;;;-0.81;83.72;100550.75;5026488;28;20210;-72
2021/01/19 02:43:31;;;;;;;4.40;2.23;;;;;;;-0.76;83.70;100542.72;5023687;28;20301;-72
2021/01/19 02:45:58;;;;;;;5.03;2.47;;;;;;;-0.71;83.74;100540.81;5024271;28;20207;-71
2021/01/19 02:48:27;;;;;;;5.00;2.50;;;;;;;-0.68;83.48;100538.97;5024651;28;20361;-72
2021/01/19 02:50:54;;;;;;;5.57;2.70;;;;;;;-0.66;83.75;100538.94;5025953;28;20202;-72
2021/01/19 02:53:23;;;;;;;3.67;2.10;;;;;;;-0.63;83.43;100536.22;5025064;28;20286;-71
2021/01/19 02:55:51;;;;;;;5.00;3.30;;;;;;;-0.57;83.77;100535.22;5024880;28;20203;-73
2021/01/19 02:58:39;;;;;;;5.27;2.40;;;;;;;-0.53;83.55;100528.94;5021662;28;20198;-72
2021/01/19 03:01:08;;;;;;;9.13;2.10;;;;;;;-0.58;83.45;100521.16;5012206;28;20993;-72
2021/01/19 03:03:37;;;;;;;3.03;1.80;;;;;;;-0.60;83.32;100522.97;5024356;28;20211;-73
2021/01/19 03:06:09;;;;;;;3.57;2.30;;;;;;;-0.52;83.51;100509.59;5025578;28;20195;-72
2021/01/19 03:08:40;;;;;;;4.43;2.37;;;;;;;-0.52;83.39;100515.72;5025614;28;20349;-71
2021/01/19 03:11:15;;;;;;;4.23;1.90;;;;;;;-0.57;83.03;100509.72;5025305;28;20222;-72
2021/01/19 03:13:44;;;;;;;4.97;2.37;;;;;;;-0.55;83.02;100500.00;5025470;28;20625;-72
2021/01/19 03:16:12;;;;;;;3.63;1.97;;;;;;;-0.59;83.27;100500.97;5020477;28;20214;-72
2021/01/19 03:18:44;;;;;;;4.33;1.80;;;;;;;-0.61;83.46;100505.44;5025133;28;20229;-72
2021/01/19 03:21:11;;;;;;;5.63;2.43;;;;;;;-0.67;83.32;100492.38;5024759;28;20662;-71
2021/01/19 03:23:40;;;;;;;2.83;1.93;;;;;;;-0.71;83.42;100499.50;5017654;28;20286;-72
2021/01/19 03:26:08;;;;;;;6.20;2.40;;;;;;;-0.78;83.34;100492.66;5023254;28;20302;-71
2021/01/19 03:28:36;;;;;;;4.43;2.10;;;;;;;-0.69;83.53;100488.91;5024901;28;20734;-72
2021/01/19 03:31:04;;;;;;;4.47;2.07;;;;;;;-0.70;83.02;100489.81;5025007;28;20198;-72
2021/01/19 03:33:32;;;;;;;7.23;2.30;;;;;;;-0.71;82.75;100493.38;5024947;28;20225;-72
2021/01/19 03:36:00;;;;;;;4.47;2.17;;;;;;;-0.65;82.82;100487.94;5025317;28;20242;-72
2021/01/19 03:38:27;;;;;;;5.83;2.70;;;;;;;-0.65;82.71;100477.38;5024905;28;20199;-71
2021/01/19 03:40:54;;;;;;;4.63;2.40;;;;;;;-0.83;83.16;100481.38;5024752;28;20210;-72
2021/01/19 03:43:21;;;;;;;3.20;2.30;;;;;;;-0.74;82.99;100482.91;5025463;28;20211;-72
2021/01/19 03:45:48;;;;;;;5.37;2.40;;;;;;;-0.85;83.42;100466.50;5020904;28;20401;-72
2021/01/19 03:48:15;;;;;;;4.37;2.20;;;;;;;-0.79;83.13;100471.63;5022048;28;20250;-71
2021/01/19 03:50:43;;;;;;;3.13;1.97;;;;;;;-0.73;82.84;100474.09;5023530;28;20218;-72
2021/01/19 03:53:11;;;;;;;5.30;3.53;;;;;;;-0.61;82.86;100479.06;5025155;28;20659;-72
2021/01/19 03:55:38;;;;;;;4.10;2.70;;;;;;;-0.68;82.50;100457.25;5024042;28;20232;-72
2021/01/19 03:58:05;;;;;;;4.47;2.60;;;;;;;-0.63;82.54;100465.03;5024659;28;20203;-72
2021/01/19 04:00:32;;;;;;;9.23;3.90;;;;;;;-0.58;82.71;100460.53;5023469;28;20293;-72
2021/01/19 04:02:59;;;;;;;5.53;2.87;;;;;;;-0.49;83.02;100462.03;5027204;28;20664;-72
2021/01/19 04:05:26;;;;;;;8.17;4.53;;;;;;;-0.40;83.22;100462.63;5028299;28;20562;-72
2021/01/19 04:07:54;;;;;;;5.03;2.40;;;;;;;-0.33;83.04;100465.97;5028282;28;20258;-71
2021/01/19 04:10:22;;;;;;;5.80;2.67;;;;;;;-0.30;82.81;100459.78;5028560;28;20219;-72
2021/01/19 04:12:49;;;;;;;6.23;3.03;;;;;;;-0.24;82.88;100478.06;5028522;28;20524;-71
2021/01/19 04:15:16;;;;;;;6.93;3.10;;;;;;;-0.44;83.28;100439.03;5027595;28;20211;-72
2021/01/19 04:17:43;;;;;;;11.70;4.87;;;;;;;-0.16;83.51;100484.84;5027830;28;20196;-71
2021/01/19 04:20:11;;;;;;;8.67;2.97;;;;;;;-0.24;82.91;100472.78;5024096;28;20204;-71
2021/01/19 04:22:39;;;;;;;8.30;2.57;;;;;;;-0.26;83.20;100472.81;5018229;28;20201;-72
2021/01/19 04:25:07;;;;;;;5.20;2.67;;;;;;;-0.24;83.29;100471.00;5024271;28;20327;-71
2021/01/19 04:27:35;;;;;;;58.47;27.70;;;;;;;-0.42;83.08;100471.50;5026124;28;20597;-72
2021/01/19 04:30:07;;;;;;;8.23;2.77;;;;;;;-0.59;83.38;100450.03;5020559;28;20207;-72
2021/01/19 04:32:36;;;;;;;6.40;3.20;;;;;;;-0.53;83.21;100456.00;5020019;28;20269;-72
2021/01/19 04:35:03;;;;;;;6.60;2.70;;;;;;;-0.49;83.80;100468.19;5025457;28;20235;-72
2021/01/19 04:37:31;;;;;;;4.80;2.60;;;;;;;-0.46;83.40;100462.81;5026583;28;20215;-72
2021/01/19 04:39:58;;;;;;;4.50;2.57;;;;;;;-0.30;83.23;100465.03;5027411;28;20213;-72
2021/01/19 04:42:25;;;;;;;7.37;3.40;;;;;;;-0.30;83.46;100462.41;5022960;28;20217;-72
2021/01/19 04:44:53;;;;;;;9.13;4.17;;;;;;;-0.24;83.39;100463.09;5027150;28;20203;-72
2021/01/19 04:47:21;;;;;;;5.53;2.57;;;;;;;-0.19;83.12;100460.31;5020549;28;20241;-72
2021/01/19 04:49:52;;;;;;;6.37;2.40;;;;;;;-0.16;83.14;100460.22;5020258;28;20678;-72
2021/01/19 04:52:22;;;;;;;6.10;2.60;;;;;;;-0.09;83.06;100460.00;5022802;28;20201;-72
2021/01/19 04:55:03;;;;;;;4.47;2.13;;;;;;;-0.23;82.68;100463.97;5031178;28;20205;-72
2021/01/19 04:57:31;;;;;;;7.57;3.77;;;;;;;-0.25;82.77;100473.69;5018257;28;20211;-71
2021/01/19 05:00:03;;;;;;;6.03;2.57;;;;;;;-0.35;83.19;100458.09;5020236;28;20666;-72
2021/01/19 05:03:06;;;;;;;5.23;2.63;;;;;;;-0.24;83.08;100456.94;5025281;28;20213;-72
2021/01/19 05:05:59;;;;;;;4.10;2.40;;;;;;;-0.30;83.15;100463.28;5019632;28;20217;-72
2021/01/19 05:08:28;;;;;;;9.27;2.97;;;;;;;-0.32;83.07;100458.00;5023696;28;20227;-72
2021/01/19 05:10:57;;;;;;;8.07;2.67;;;;;;;-0.33;83.17;100451.00;5019984;28;20212;-72
2021/01/19 05:13:53;;;;;;;8.40;3.27;;;;;;;-0.27;83.33;100462.31;5024676;28;20224;-72
2021/01/19 05:16:25;;;;;;;5.43;2.50;;;;;;;-0.36;83.35;100452.88;5024107;28;20562;-71
2021/01/19 05:18:52;;;;;;;8.17;2.97;;;;;;;-0.52;83.19;100407.63;5024769;28;20619;-71
2021/01/19 05:21:20;;;;;;;6.30;2.77;;;;;;;-0.42;83.04;100422.25;5027024;28;20298;-72
2021/01/19 05:23:48;;;;;;;9.23;2.83;;;;;;;-0.43;82.77;100417.91;5022672;28;20697;-71
2021/01/19 05:26:17;;;;;;;5.10;2.70;;;;;;;-0.19;83.13;100439.22;5023887;28;20226;-71
2021/01/19 05:28:46;;;;;;;7.03;2.80;;;;;;;-0.20;83.19;100437.50;5024688;28;20226;-72
2021/01/19 05:31:22;;;;;;;7.53;2.97;;;;;;;-0.36;83.33;100430.00;5019052;28;20235;-72
2021/01/19 05:34:02;;;;;;;8.70;3.30;;;;;;;-0.42;83.83;100424.03;5019204;28;20223;-71
2021/01/19 05:36:35;;;;;;;10.17;3.13;;;;;;;-0.37;83.78;100430.91;5030963;28;20293;-72
2021/01/19 05:39:04;;;;;;;8.23;3.00;;;;;;;-0.44;84.02;100429.34;5012034;28;20212;-72
2021/01/19 05:41:35;;;;;;;91.70;42.03;;;;;;;-0.37;84.11;100423.00;5016473;28;20214;-72
2021/01/19 05:44:14;;;;;;;15.10;7.20;;;;;;;-0.36;83.92;100416.81;5018803;28;20609;-72
2021/01/19 05:46:44;;;;;;;7.23;3.23;;;;;;;-0.36;83.99;100411.53;5019630;28;20677;-70
2021/01/19 05:49:17;;;;;;;9.83;3.97;;;;;;;-0.36;84.52;100418.56;5021116;28;20244;-71
2021/01/19 05:51:46;;;;;;;9.97;3.30;;;;;;;-0.41;84.74;100409.94;5021218;28;20202;-71
2021/01/19 05:54:27;;;;;;;7.10;3.03;;;;;;;-0.50;85.10;100405.78;5020491;28;20241;-71
2021/01/19 05:57:03;;;;;;;10.50;3.40;;;;;;;-0.45;85.17;100406.53;5021375;28;20209;-71
2021/01/19 05:59:33;;;;;;;9.43;4.20;;;;;;;-0.60;84.74;100370.06;5019063;28;20496;-71
2021/01/19 06:02:02;;;;;;;5.77;3.13;;;;;;;-0.37;85.15;100403.66;5020539;28;20686;-71
2021/01/19 06:04:32;;;;;;;12.33;4.07;;;;;;;-0.39;84.97;100401.06;5025984;28;20202;-71
2021/01/19 06:07:00;;;;;;;8.07;3.57;;;;;;;-0.19;84.61;100403.16;5024603;28;20633;-71
2021/01/19 06:09:27;;;;;;;11.57;4.60;;;;;;;-0.22;84.76;100403.25;5022044;28;20595;-71
2021/01/19 06:11:56;;;;;;;7.87;3.93;;;;;;;-0.12;84.63;100401.19;5017998;28;20207;-71
2021/01/19 06:14:24;;;;;;;10.30;3.67;;;;;;;-0.22;84.49;100397.97;5015473;28;20679;-71
2021/01/19 06:16:51;;;;;;;10.63;4.10;;;;;;;-0.29;85.17;100398.19;5019429;28;20201;-71
2021/01/19 06:19:28;;;;;;;8.97;3.83;;;;;;;-0.30;85.53;100399.09;5017887;28;20199;-71
2021/01/19 06:21:57;;;;;;;10.50;4.00;;;;;;;-0.33;85.45;100398.25;5016142;28;20224;-71
2021/01/19 06:24:34;;;;;;;13.50;4.47;;;;;;;-0.26;85.53;100392.81;5020293;28;20506;-72
2021/01/19 06:27:02;;;;;;;11.77;3.97;;;;;;;-0.24;85.51;100389.22;5017387;28;20203;-72
2021/01/19 06:29:31;;;;;;;10.20;4.20;;;;;;;-0.34;85.68;100378.06;5021905;28;20857;-72
2021/01/19 06:32:03;;;;;;;11.77;4.43;;;;;;;-0.23;85.90;100380.41;5025010;28;20208;-71
2021/01/19 06:34:32;;;;;;;15.17;4.93;;;;;;;-0.26;85.89;100380.50;5022378;28;20337;-72
2021/01/19 06:37:01;;;;;;;14.43;4.87;;;;;;;-0.30;85.93;100373.59;5022791;28;20238;-72
2021/01/19 06:39:34;;;;;;;13.07;4.80;;;;;;;-0.29;86.18;100379.72;5010587;28;20207;-72
2021/01/19 06:42:07;;;;;;;14.30;4.70;;;;;;;-0.18;85.91;100378.50;5023758;28;20735;-72
2021/01/19 06:44:40;;;;;;;14.13;3.93;;;;;;;-0.18;85.81;100380.25;5038760;28;20236;-73
2021/01/19 06:47:08;;;;;;;15.17;4.57;;;;;;;-0.66;85.35;100301.66;5025110;28;20201;-72
2021/01/19 06:49:55;;;;;;;13.30;4.77;;;;;;;-0.23;85.86;100371.63;5024579;28;20581;-71
2021/01/19 06:52:23;;;;;;;11.40;5.10;;;;;;;-0.17;86.01;100368.78;5025022;28;20218;-72
2021/01/19 06:55:20;;;;;;;11.30;4.80;;;;;;;-0.07;85.56;100373.75;5011225;28;20203;-72
2021/01/19 06:57:53;;;;;;;12.80;4.97;;;;;;;-0.40;86.08;100330.78;5023713;28;20205;-72
2021/01/19 07:00:21;;;;;;;13.07;5.00;;;;;;;-0.19;86.21;100362.72;5023527;28;20386;-71
2021/01/19 07:02:50;;;;;;;18.00;4.83;;;;;;;-0.17;85.89;100360.88;5025867;28;20260;-72
2021/01/19 07:05:19;;;;;;;18.70;6.00;;;;;;;-0.08;85.97;100363.22;5026069;28;20524;-71
2021/01/19 07:07:48;;;;;;;11.57;4.63;;;;;;;-0.06;85.79;100367.56;5024053;28;20219;-72
2021/01/19 07:10:19;;;;;;;13.70;4.53;;;;;;;0.10;85.42;100373.25;5025863;28;20699;-71
2021/01/19 07:13:03;;;;;;;12.30;4.23;;;;;;;0.15;85.26;100371.31;5025745;28;20640;-72
2021/01/19 07:16:07;;;;;;;10.90;4.17;;;;;;;0.15;85.20;100368.69;5025810;28;20234;-72
2021/01/19 07:19:00;;;;;;;8.33;3.57;;;;;;;0.13;85.35;100367.88;5012357;28;20204;-72
2021/01/19 07:21:46;;;;;;;13.50;5.03;;;;;;;0.16;85.23;100358.97;5020905;28;20210;-72
2021/01/19 07:24:20;;;;;;;9.17;3.87;;;;;;;0.22;85.00;100357.00;5025917;28;20538;-71
2021/01/19 07:26:52;;;;;;;11.83;4.23;;;;;;;0.26;84.91;100363.03;5025304;28;20226;-72
2021/01/19 07:29:21;;;;;;;8.17;3.73;;;;;;;0.32;84.90;100368.16;5024557;28;20325;-72
2021/01/19 07:31:48;;;;;;;12.67;4.53;;;;;;;0.26;84.73;100365.69;5040343;28;20196;-72
2021/01/19 07:34:18;;;;;;;28.40;12.37;;;;;;;0.07;84.89;100328.47;5026078;28;20223;-72
2021/01/19 07:36:53;;;;;;;18.03;6.37;;;;;;;0.39;84.75;100358.25;5028541;28;20666;-72
2021/01/19 07:39:21;;;;;;;15.00;4.50;;;;;;;0.43;85.04;100359.88;5030084;28;20235;-72
2021/01/19 07:41:49;;;;;;;13.43;5.03;;;;;;;0.33;85.07;100355.81;5029664;28;20211;-72
2021/01/19 07:44:22;;;;;;;12.67;5.07;;;;;;;0.41;84.96;100361.72;5028316;28;20206;-72
2021/01/19 07:47:15;;;;;;;12.80;4.47;;;;;;;0.38;85.21;100362.66;5029861;28;20569;-72
2021/01/19 07:49:42;;;;;;;12.13;4.77;;;;;;;0.32;85.36;100351.44;5029728;28;20224;-72
2021/01/19 07:52:12;;;;;;;10.80;4.07;;;;;;;0.29;85.46;100355.88;5027449;28;20619;-72
2021/01/19 07:54:40;;;;;;;12.53;4.20;;;;;;;0.34;85.40;100355.75;5028883;28;20215;-71
2021/01/19 07:57:12;;;;;;;11.60;4.40;;;;;;;0.34;85.10;100344.34;5029465;28;20217;-72
2021/01/19 07:59:41;;;;;;;11.57;4.47;;;;;;;0.49;85.26;100349.09;5029632;28;20835;-72
2021/01/19 08:02:08;;;;;;;12.33;4.27;;;;;;;0.45;84.82;100336.91;5029392;28;20283;-72
2021/01/19 08:04:37;;;;;;;10.60;4.60;;;;;;;0.43;85.13;100342.25;5029240;28;20199;-72
2021/01/19 08:07:13;;;;;;;16.47;5.57;;;;;;;0.42;85.14;100339.66;5029089;28;20569;-72
2021/01/19 08:09:41;;;;;;;13.20;5.10;;;;;;;0.46;85.47;100339.50;5016550;28;20624;-72
2021/01/19 08:12:12;;;;;;;12.30;4.57;;;;;;;0.48;85.41;100342.09;5029278;28;20197;-72
2021/01/19 08:14:41;;;;;;;12.53;4.20;;;;;;;0.59;85.25;100345.22;5025118;28;20750;-72
2021/01/19 08:17:09;;;;;;;12.17;4.57;;;;;;;0.61;84.98;100346.94;5029249;28;20658;-72
2021/01/19 08:19:39;;;;;;;11.07;4.03;;;;;;;0.72;84.83;100341.28;5028573;28;20629;-72
2021/01/19 08:22:10;;;;;;;11.77;4.20;;;;;;;0.79;84.38;100336.66;5028273;28;20205;-72
2021/01/19 08:24:42;;;;;;;11.63;4.67;;;;;;;0.82;84.55;100339.19;5028708;28;20211;-72
2021/01/19 08:27:10;;;;;;;8.73;4.47;;;;;;;0.71;84.44;100333.41;5028969;28;20191;-72
2021/01/19 08:29:38;;;;;;;12.90;4.27;;;;;;;0.68;84.63;100326.44;5025799;28;20217;-72
2021/01/19 08:32:08;;;;;;;16.20;4.37;;;;;;;0.79;84.63;100345.44;5028453;28;20667;-72
2021/01/19 08:34:39;;;;;;;17.57;5.33;;;;;;;0.73;84.98;100335.09;5027317;28;20242;-72
2021/01/19 08:37:07;;;;;;;10.83;3.77;;;;;;;0.83;84.32;100333.84;5028346;28;20532;-72
2021/01/19 08:39:35;;;;;;;14.53;4.20;;;;;;;0.81;84.70;100335.69;5028745;28;20732;-72
2021/01/19 08:42:20;;;;;;;8.83;3.43;;;;;;;0.87;84.59;100327.53;5029020;28;20627;-72
2021/01/19 08:44:56;;;;;;;14.83;3.87;;;;;;;0.69;84.40;100309.69;5027198;28;20226;-72
2021/01/19 08:47:25;;;;;;;9.83;4.10;;;;;;;0.81;85.04;100342.75;5027961;28;20196;-72
2021/01/19 08:50:15;;;;;;;12.23;4.67;;;;;;;0.82;85.07;100340.03;5027837;28;20197;-72
2021/01/19 08:52:42;;;;;;;11.73;5.23;;;;;;;0.64;85.74;100338.03;5028332;28;20477;-72
2021/01/19 08:55:15;;;;;;;8.50;4.10;;;;;;;0.75;85.63;100337.66;5028708;28;20212;-72
2021/01/19 08:57:45;;;;;;;14.37;5.03;;;;;;;0.81;85.40;100334.81;5028474;28;20209;-72
2021/01/19 09:00:29;;;;;;;10.57;3.50;;;;;;;0.93;85.14;100322.06;5028278;28;20205;-71
2021/01/19 09:02:57;;;;;;;10.73;4.10;;;;;;;0.81;85.45;100329.53;5026127;28;20198;-72
2021/01/19 09:05:27;;;;;;;12.77;4.23;;;;;;;0.86;85.38;100333.72;5027225;28;20601;-71
2021/01/19 09:07:55;;;;;;;13.17;4.87;;;;;;;0.77;85.78;100334.06;5014361;28;20577;-72
2021/01/19 09:10:25;;;;;;;13.47;5.03;;;;;;;0.77;86.28;100338.47;5028195;28;20207;-71
2021/01/19 09:12:54;;;;;;;6.73;3.47;;;;;;;0.94;85.50;100333.50;5027683;28;20715;-72
2021/01/19 09:15:22;;;;;;;15.70;4.70;;;;;;;1.05;85.23;100327.81;5028040;28;20209;-71
2021/01/19 09:17:56;;;;;;;14.93;4.83;;;;;;;1.14;84.79;100332.75;5027673;28;20209;-71
2021/01/19 09:20:25;;;;;;;15.93;4.53;;;;;;;1.15;85.05;100318.63;5027967;28;20229;-72
2021/01/19 09:22:52;;;;;;;7.77;3.47;;;;;;;1.05;85.22;100326.03;5027855;28;20296;-71
2021/01/19 09:25:22;;;;;;;11.67;3.93;;;;;;;0.96;85.68;100321.06;5027860;28;20201;-71
2021/01/19 09:27:49;;;;;;;12.77;4.03;;;;;;;1.08;85.38;100327.69;5027688;28;20216;-72
2021/01/19 09:30:20;;;;;;;8.90;3.83;;;;;;;1.08;85.29;100323.28;5027765;28;20201;-71
2021/01/19 09:32:48;;;;;;;10.67;3.83;;;;;;;1.06;85.68;100319.81;5026399;28;20208;-71
2021/01/19 09:35:17;;;;;;;10.37;4.63;;;;;;;1.15;84.90;100315.97;5027663;28;20236;-71
2021/01/19 09:37:44;;;;;;;11.03;4.83;;;;;;;1.06;85.32;100316.31;5027469;28;20206;-72
2021/01/19 09:40:12;;;;;;;12.67;4.50;;;;;;;1.11;85.39;100323.16;5027588;28;20209;-72
2021/01/19 09:42:40;;;;;;;11.87;4.50;;;;;;;1.24;85.05;100313.03;5027463;28;20197;-72
2021/01/19 09:45:10;;;;;;;11.03;5.00;;;;;;;1.22;84.58;100312.19;5025543;28;20296;-71
2021/01/19 09:47:40;;;;;;;13.17;5.10;;;;;;;1.29;84.86;100312.84;5027292;28;20201;-72
2021/01/19 09:50:09;;;;;;;11.33;4.13;;;;;;;1.32;84.64;100310.09;5027532;28;20208;-72
2021/01/19 09:52:40;;;;;;;10.27;4.20;;;;;;;1.19;85.05;100309.66;5027423;28;20209;-72
2021/01/19 09:55:11;;;;;;;10.87;3.60;;;;;;;1.16;85.15;100304.47;5027577;28;20304;-72
2021/01/19 09:57:39;;;;;;;10.13;4.17;;;;;;;1.23;85.11;100303.38;5026882;28;20695;-72
2021/01/19 10:00:09;;;;;;;10.23;4.13;;;;;;;0.98;84.36;100234.66;5025013;28;20217;-71
2021/01/19 10:02:41;;;;;;;9.30;3.73;;;;;;;1.24;84.50;100262.78;5026805;28;20206;-72
2021/01/19 10:05:09;;;;;;;10.97;4.13;;;;;;;1.46;84.38;100290.13;5026581;28;20230;-72
2021/01/19 10:07:36;;;;;;;11.13;4.23;;;;;;;1.50;84.37;100290.88;5026908;28;20198;-71
2021/01/19 10:10:14;;;;;;;10.13;4.33;;;;;;;1.52;84.22;100283.72;5026867;28;20705;-72
2021/01/19 10:12:43;;;;;;;11.93;4.10;;;;;;;1.51;84.02;100290.81;5026839;28;20227;-72
2021/01/19 10:15:13;;;;;;;9.17;3.77;;;;;;;1.48;84.11;100284.78;5026932;28;20281;-72
2021/01/19 10:17:41;;;;;;;8.17;3.40;;;;;;;1.48;84.23;100280.34;5026844;28;20581;-72
2021/01/19 10:20:11;;;;;;;9.43;3.50;;;;;;;1.53;84.17;100285.44;5026962;28;20204;-72
2021/01/19 10:22:40;;;;;;;8.50;3.67;;;;;;;1.67;83.88;100279.66;5026708;28;20205;-72
2021/01/19 10:25:10;;;;;;;9.17;3.70;;;;;;;1.56;84.01;100277.44;5026831;28;20202;-72
2021/01/19 10:27:40;;;;;;;7.00;3.70;;;;;;;1.60;84.14;100280.81;5026656;28;20208;-71
2021/01/19 10:30:08;;;;;;;8.03;3.63;;;;;;;1.47;84.55;100265.38;5026569;28;20224;-72
2021/01/19 10:32:48;;;;;;;11.10;4.13;;;;;;;1.55;84.29;100265.97;5026690;28;20216;-72
2021/01/19 10:35:26;;;;;;;7.97;3.47;;;;;;;1.50;84.62;100261.75;5024867;28;20233;-71
2021/01/19 10:37:55;;;;;;;10.53;3.83;;;;;;;1.43;84.87;100265.56;5026764;28;20668;-71
2021/01/19 10:40:23;;;;;;;8.93;3.90;;;;;;;1.52;84.70;100260.78;5026470;28;20201;-72
2021/01/19 10:42:50;;;;;;;10.00;4.03;;;;;;;1.45;85.03;100254.00;5026583;28;20674;-72
2021/01/19 10:45:24;;;;;;;8.50;3.70;;;;;;;1.54;84.99;100258.97;5026494;28;20236;-72
2021/01/19 10:47:53;;;;;;;10.87;4.17;;;;;;;1.54;85.13;100253.69;5026788;28;20213;-72
2021/01/19 10:50:21;;;;;;;8.87;3.47;;;;;;;1.64;84.72;100246.22;5026229;28;20208;-72
2021/01/19 10:52:54;;;;;;;8.20;3.73;;;;;;;1.38;84.65;100220.78;5026478;28;20262;-72
2021/01/19 10:55:21;;;;;;;9.10;4.00;;;;;;;1.51;85.29;100242.31;5026378;28;20712;-72
2021/01/19 10:57:48;;;;;;;10.63;3.73;;;;;;;1.51;85.25;100239.69;5026309;28;20197;-72
2021/01/19 11:00:17;;;;;;;10.90;3.80;;;;;;;1.48;85.33;100243.31;5024490;28;20246;-72
2021/01/19 11:02:44;;;;;;;8.23;3.33;;;;;;;1.52;85.35;100239.63;5026165;28;20378;-71
2021/01/19 11:05:13;;;;;;;10.53;4.40;;;;;;;1.67;85.03;100238.16;5022764;28;20624;-72
2021/01/19 11:07:47;;;;;;;13.13;3.70;;;;;;;1.64;84.70;100233.00;5025890;28;20250;-72
2021/01/19 11:10:16;;;;;;;11.47;3.83;;;;;;;1.70;84.56;100231.88;5024329;28;20245;-72
2021/01/19 11:12:44;;;;;;;8.20;3.83;;;;;;;1.53;85.13;100230.78;5025522;28;20285;-72
2021/01/19 11:15:12;;;;;;;9.80;3.37;;;;;;;1.59;85.46;100228.81;5026234;28;20225;-72
2021/01/19 11:17:40;;;;;;;11.07;3.93;;;;;;;1.60;85.27;100225.25;5026063;28;20222;-72
2021/01/19 11:20:09;;;;;;;13.03;4.17;;;;;;;1.66;85.49;100219.72;5025941;28;20286;-72
2021/01/19 11:22:38;;;;;;;9.87;4.07;;;;;;;1.69;85.52;100212.50;5025925;28;20284;-72
2021/01/19 11:25:06;;;;;;;11.53;3.93;;;;;;;1.70;85.25;100216.00;5025772;28;20203;-72
2021/01/19 11:27:33;;;;;;;6.50;3.53;;;;;;;1.71;85.05;100209.78;5026054;28;20206;-71
2021/01/19 11:30:01;;;;;;;11.70;4.90;;;;;;;1.63;85.38;100203.97;5025551;28;20628;-72
2021/01/19 11:32:28;;;;;;;9.23;3.50;;;;;;;1.57;85.59;100212.16;5026020;28;20564;-72
2021/01/19 11:34:55;;;;;;;11.73;3.60;;;;;;;1.64;85.60;100205.69;5023329;28;20236;-71
2021/01/19 11:37:23;;;;;;;10.63;4.57;;;;;;;1.67;85.31;100194.97;5024396;28;20687;-72
2021/01/19 11:39:51;;;;;;;16.53;4.60;;;;;;;1.64;85.43;100189.81;5025442;28;20529;-72